Station Historical Data
Daily Summary for October 21, 2017 Units:  English    Metric   Both
« Previous Day
Next Day »
Daily Weekly Monthly Yearly Custom
  High: Low: Average:
Temperature: 73.8 °F 41.8 °F 56.8 °F
Dew Point: 48.8 °F 37.9 °F 44.2 °F
Humidity: 87% 36% 66%
Wind Speed: 7.0mph 0.0mph 0.7mph
Wind Gust: 10.0mph - -
Wind- - WSW
Pressure: 30.30 in 30.21 in -
Precipitation: 0.00 in    
Historical Graphs
 
 
Tabular Data for October 21, 2017
Time Temperature Dew Point Pressure Wind Wind Speed Wind Gust Humidity Rainfall Rate (Hourly)
00:04 48.4 °F 43.5 °F 30.21 in Calm     83% 0.00 in
00:09 48.4 °F 43.5 °F 30.21 in Calm     83% 0.00 in
00:14 48.2 °F 43.3 °F 30.21 in Calm     83% 0.00 in
00:19 47.8 °F 42.6 °F 30.21 in Calm     82% 0.00 in
00:24 47.5 °F 42.6 °F 30.21 in Calm     83% 0.00 in
00:29 47.3 °F 42.7 °F 30.21 in Calm     84% 0.00 in
00:34 47.1 °F 42.5 °F 30.21 in Calm     84% 0.00 in
00:39 47.3 °F 43.0 °F 30.21 in Calm     85% 0.00 in
00:44 47.2 °F 42.9 °F 30.21 in Calm     85% 0.00 in
00:49 47.0 °F 42.4 °F 30.21 in Calm     84% 0.00 in
00:54 47.0 °F 42.7 °F 30.21 in Calm     85% 0.00 in
00:59 47.1 °F 42.8 °F 30.21 in Calm     85% 0.00 in
01:04 47.3 °F 42.7 °F 30.21 in Calm     84% 0.00 in
01:09 47.0 °F 42.1 °F 30.21 in Calm     83% 0.00 in
01:14 46.6 °F 41.7 °F 30.21 in Calm     83% 0.00 in
01:19 46.1 °F 41.5 °F 30.21 in Calm     84% 0.00 in
01:24 46.0 °F 41.4 °F 30.21 in Calm     84% 0.00 in
01:29 46.2 °F 41.9 °F 30.22 in Calm     85% 0.00 in
01:34 46.3 °F 41.7 °F 30.21 in Calm     84% 0.00 in
01:39 46.1 °F 41.5 °F 30.22 in Calm     84% 0.00 in
01:44 45.9 °F 41.3 °F 30.22 in Calm     84% 0.00 in
01:49 45.5 °F 40.9 °F 30.22 in Calm     84% 0.00 in
01:54 45.5 °F 40.9 °F 30.22 in Calm     84% 0.00 in
01:59 45.6 °F 41.4 °F 30.22 in Calm     85% 0.00 in
02:04 45.5 °F 41.3 °F 30.22 in Calm     85% 0.00 in
02:09 45.4 °F 41.2 °F 30.22 in Calm     85% 0.00 in
02:14 45.4 °F 41.2 °F 30.22 in Calm     85% 0.00 in
02:19 45.4 °F 41.2 °F 30.22 in Calm     85% 0.00 in
02:24 45.3 °F 40.7 °F 30.22 in Calm     84% 0.00 in
02:29 45.2 °F 40.7 °F 30.23 in Calm     84% 0.00 in
02:34 45.1 °F 40.6 °F 30.23 in Calm     84% 0.00 in
02:39 45.0 °F 40.5 °F 30.23 in Calm     84% 0.00 in
02:44 44.6 °F 40.1 °F 30.23 in Calm     84% 0.00 in
02:49 44.6 °F 40.1 °F 30.23 in Calm     84% 0.00 in
02:54 44.4 °F 39.9 °F 30.23 in Calm     84% 0.00 in
02:59 44.4 °F 39.9 °F 30.23 in Calm     84% 0.00 in
03:04 44.3 °F 39.8 °F 30.23 in Calm     84% 0.00 in
03:09 44.2 °F 40.0 °F 30.23 in Calm     85% 0.00 in
03:14 44.1 °F 39.9 °F 30.23 in Calm     85% 0.00 in
03:19 43.9 °F 39.7 °F 30.23 in Calm     85% 0.00 in
03:24 43.8 °F 39.6 °F 30.23 in Calm     85% 0.00 in
03:29 43.8 °F 39.9 °F 30.23 in Calm     86% 0.00 in
03:34 43.8 °F 39.9 °F 30.23 in Calm     86% 0.00 in
03:39 43.9 °F 39.7 °F 30.23 in Calm     85% 0.00 in
03:44 43.7 °F 39.8 °F 30.23 in Calm     86% 0.00 in
03:49 43.7 °F 39.8 °F 30.23 in Calm     86% 0.00 in
03:54 43.5 °F 39.6 °F 30.24 in Calm     86% 0.00 in
03:59 43.4 °F 39.5 °F 30.23 in Calm     86% 0.00 in
04:04 43.4 °F 39.5 °F 30.24 in Calm     86% 0.00 in
04:09 43.4 °F 39.5 °F 30.24 in Calm     86% 0.00 in
04:14 43.3 °F 39.4 °F 30.24 in Calm     86% 0.00 in
04:19 43.2 °F 39.3 °F 30.24 in Calm     86% 0.00 in
04:24 43.1 °F 38.9 °F 30.24 in Calm     85% 0.00 in
04:29 43.0 °F 39.1 °F 30.24 in Calm     86% 0.00 in
04:34 42.9 °F 39.0 °F 30.24 in Calm     86% 0.00 in
04:39 42.9 °F 39.0 °F 30.24 in Calm     86% 0.00 in
04:44 42.9 °F 39.0 °F 30.24 in Calm     86% 0.00 in
04:49 42.9 °F 39.0 °F 30.24 in Calm     86% 0.00 in
04:54 42.9 °F 39.0 °F 30.24 in Calm     86% 0.00 in
04:59 42.9 °F 39.0 °F 30.24 in Calm     86% 0.00 in
05:04 43.0 °F 39.1 °F 30.24 in Calm     86% 0.00 in
05:09 43.0 °F 39.1 °F 30.25 in Calm     86% 0.00 in
05:14 42.9 °F 39.0 °F 30.25 in Calm     86% 0.00 in
05:19 42.9 °F 39.0 °F 30.25 in Calm     86% 0.00 in
05:24 43.0 °F 39.1 °F 30.25 in Calm     86% 0.00 in
05:29 42.9 °F 39.0 °F 30.25 in Calm     86% 0.00 in
05:34 42.9 °F 39.0 °F 30.25 in Calm     86% 0.00 in
05:39 42.8 °F 38.9 °F 30.25 in Calm     86% 0.00 in
05:44 42.7 °F 38.8 °F 30.25 in Calm     86% 0.00 in
05:49 42.7 °F 38.8 °F 30.25 in Calm     86% 0.00 in
05:54 42.5 °F 38.6 °F 30.26 in Calm     86% 0.00 in
05:59 42.5 °F 38.6 °F 30.25 in Calm     86% 0.00 in
06:04 42.4 °F 38.5 °F 30.26 in Calm     86% 0.00 in
06:09 42.3 °F 38.4 °F 30.26 in Calm     86% 0.00 in
06:14 42.3 °F 38.4 °F 30.26 in Calm     86% 0.00 in
06:19 42.3 °F 38.4 °F 30.26 in Calm     86% 0.00 in
06:24 42.4 °F 38.5 °F 30.26 in Calm     86% 0.00 in
06:29 42.4 °F 38.5 °F 30.26 in Calm     86% 0.00 in
06:34 42.4 °F 38.5 °F 30.26 in Calm     86% 0.00 in
06:39 42.5 °F 38.6 °F 30.26 in Calm     86% 0.00 in
06:44 42.2 °F 38.3 °F 30.26 in Calm     86% 0.00 in
06:49 42.2 °F 38.3 °F 30.26 in Calm     86% 0.00 in
06:54 42.0 °F 38.1 °F 30.26 in Calm     86% 0.00 in
06:59 42.1 °F 38.2 °F 30.26 in Calm     86% 0.00 in
07:04 42.1 °F 38.2 °F 30.26 in Calm     86% 0.00 in
07:09 41.9 °F 38.0 °F 30.26 in Calm     86% 0.00 in
07:14 41.9 °F 38.0 °F 30.26 in Calm     86% 0.00 in
07:19 41.8 °F 37.9 °F 30.27 in Calm     86% 0.00 in
07:24 41.9 °F 38.0 °F 30.27 in Calm     86% 0.00 in
07:29 41.9 °F 38.3 °F 30.27 in Calm     87% 0.00 in
07:34 41.9 °F 38.3 °F 30.27 in Calm     87% 0.00 in
07:39 41.9 °F 38.3 °F 30.27 in Calm     87% 0.00 in
07:44 41.9 °F 38.3 °F 30.28 in Calm     87% 0.00 in
07:49 42.1 °F 38.5 °F 30.28 in Calm     87% 0.00 in
07:54 42.4 °F 38.8 °F 30.28 in Calm     87% 0.00 in
07:59 42.8 °F 39.2 °F 30.28 in Calm     87% 0.00 in
08:04 43.5 °F 39.6 °F 30.28 in Calm     86% 0.00 in
08:09 43.9 °F 40.0 °F 30.28 in Calm     86% 0.00 in
08:14 44.4 °F 40.2 °F 30.28 in Calm     85% 0.00 in
08:19 45.0 °F 40.5 °F 30.28 in Calm     84% 0.00 in
08:24 45.4 °F 40.8 °F 30.29 in Calm     84% 0.00 in
08:29 46.0 °F 41.1 °F 30.28 in Calm     83% 0.00 in
08:34 46.9 °F 41.4 °F 30.29 in Calm     81% 0.00 in
08:39 47.4 °F 41.2 °F 30.29 in Calm     79% 0.00 in
08:44 48.3 °F 41.8 °F 30.29 in Calm     78% 0.00 in
08:49 49.6 °F 42.7 °F 30.29 in Calm     77% 0.00 in
08:54 50.9 °F 42.6 °F 30.30 in Calm     73% 0.00 in
08:59 52.0 °F 42.9 °F 30.30 in Calm     71% 0.00 in
09:04 52.7 °F 43.2 °F 30.30 in Calm     70% 0.00 in
09:09 53.0 °F 43.1 °F 30.30 in Calm   2.0 mph 69% 0.00 in
09:14 53.5 °F 43.2 °F 30.30 in Calm   2.0 mph 68% 0.00 in
09:19 54.2 °F 43.9 °F 30.30 in Calm     68% 0.00 in
09:24 55.0 °F 44.6 °F 30.30 in Calm     68% 0.00 in
09:29 55.4 °F 43.8 °F 30.30 in Calm     65% 0.00 in
09:34 56.0 °F 44.0 °F 30.30 in Calm     64% 0.00 in
09:39 56.6 °F 44.6 °F 30.30 in Calm   2.0 mph 64% 0.00 in
09:44 57.1 °F 44.2 °F 30.30 in SSW 1.0 mph 3.0 mph 62% 0.00 in
09:49 57.8 °F 44.9 °F 30.30 in Calm   2.0 mph 62% 0.00 in
09:54 58.5 °F 45.1 °F 30.30 in Calm     61% 0.00 in
09:59 59.1 °F 44.8 °F 30.30 in SSW 1.0 mph 4.0 mph 59% 0.00 in
10:04 59.2 °F 44.9 °F 30.30 in Calm   3.0 mph 59% 0.00 in
10:09 59.4 °F 45.5 °F 30.30 in Calm   3.0 mph 60% 0.00 in
10:14 59.9 °F 45.1 °F 30.30 in Calm   4.0 mph 58% 0.00 in
10:19 60.8 °F 46.4 °F 30.30 in South 1.0 mph 4.0 mph 59% 0.00 in
10:24 61.5 °F 46.6 °F 30.30 in SSW 1.0 mph 3.0 mph 58% 0.00 in
10:34 62.3 °F 47.3 °F 30.29 in Calm   3.0 mph 58% 0.00 in
10:39 62.4 °F 46.5 °F 30.29 in Calm   4.0 mph 56% 0.00 in
10:44 62.6 °F 46.7 °F 30.29 in SSW 3.0 mph 6.0 mph 56% 0.00 in
10:49 63.1 °F 45.7 °F 30.29 in Calm   3.0 mph 53% 0.00 in
10:54 63.8 °F 46.3 °F 30.29 in SSW 2.0 mph 4.0 mph 53% 0.00 in
10:59 64.3 °F 46.8 °F 30.29 in SSW 2.0 mph 5.0 mph 53% 0.00 in
11:04 65.0 °F 48.4 °F 30.29 in SW 1.0 mph 4.0 mph 55% 0.00 in
11:09 65.7 °F 48.1 °F 30.29 in South 1.0 mph 5.0 mph 53% 0.00 in
11:14 66.3 °F 48.7 °F 30.29 in SSW 2.0 mph 5.0 mph 53% 0.00 in
11:19 67.0 °F 48.3 °F 30.29 in SSW 2.0 mph 5.0 mph 51% 0.00 in
11:24 67.9 °F 48.6 °F 30.28 in SW 2.0 mph 6.0 mph 50% 0.00 in
11:29 68.3 °F 48.4 °F 30.29 in SW 1.0 mph 4.0 mph 49% 0.00 in
11:34 68.6 °F 47.6 °F 30.29 in SSW 3.0 mph 8.0 mph 47% 0.00 in
11:39 69.0 °F 46.8 °F 30.29 in SSW 2.0 mph 5.0 mph 45% 0.00 in
11:44 68.6 °F 47.0 °F 30.29 in SW 2.0 mph 7.0 mph 46% 0.00 in
11:49 68.9 °F 47.8 °F 30.29 in SW 2.0 mph 7.0 mph 47% 0.00 in
11:54 69.4 °F 47.7 °F 30.29 in SW 2.0 mph 4.0 mph 46% 0.00 in
11:59 69.7 °F 46.2 °F 30.29 in SW 2.0 mph 6.0 mph 43% 0.00 in
12:04 70.1 °F 46.6 °F 30.29 in Calm   5.0 mph 43% 0.00 in
12:14 71.2 °F 47.6 °F 30.28 in West 2.0 mph 7.0 mph 43% 0.00 in
12:19 71.7 °F 46.1 °F 30.28 in WSW 5.0 mph 8.0 mph 40% 0.00 in
12:24 71.2 °F 45.0 °F 30.28 in SW 3.0 mph 8.0 mph 39% 0.00 in
12:29 71.8 °F 46.2 °F 30.28 in SW 3.0 mph 7.0 mph 40% 0.00 in
12:34 71.9 °F 45.6 °F 30.28 in WSW 7.0 mph 9.0 mph 39% 0.00 in
12:39 72.1 °F 46.4 °F 30.28 in WSW 2.0 mph 10.0 mph 40% 0.00 in
12:44 71.7 °F 44.7 °F 30.27 in WSW 5.0 mph 10.0 mph 38% 0.00 in
12:49 72.2 °F 46.5 °F 30.27 in West 3.0 mph 6.0 mph 40% 0.00 in
12:54 72.5 °F 45.4 °F 30.27 in WSW 4.0 mph 9.0 mph 38% 0.00 in
12:59 72.8 °F 47.1 °F 30.27 in WSW 4.0 mph 9.0 mph 40% 0.00 in
13:04 73.1 °F 47.3 °F 30.27 in SW 4.0 mph 9.0 mph 40% 0.00 in
13:09 72.4 °F 45.4 °F 30.27 in SW 5.0 mph 9.0 mph 38% 0.00 in
13:14 72.4 °F 45.4 °F 30.27 in SW 7.0 mph 10.0 mph 38% 0.00 in
13:19 72.6 °F 46.2 °F 30.26 in WNW 5.0 mph 8.0 mph 39% 0.00 in
13:24 72.4 °F 45.4 °F 30.26 in SW 5.0 mph 8.0 mph 38% 0.00 in
13:29 72.6 °F 46.2 °F 30.26 in SW 5.0 mph 9.0 mph 39% 0.00 in
13:34 72.8 °F 46.4 °F 30.26 in WSW 4.0 mph 9.0 mph 39% 0.00 in
13:39 73.2 °F 46.1 °F 30.26 in SW 4.0 mph 8.0 mph 38% 0.00 in
13:44 73.0 °F 46.6 °F 30.26 in SW 4.0 mph 8.0 mph 39% 0.00 in
13:49 73.0 °F 47.2 °F 30.26 in WSW 3.0 mph 6.0 mph 40% 0.00 in
13:54 72.8 °F 45.0 °F 30.25 in West 2.0 mph 7.0 mph 37% 0.00 in
13:59 72.8 °F 44.3 °F 30.25 in WSW 4.0 mph 9.0 mph 36% 0.00 in
14:04 73.1 °F 47.3 °F 30.25 in WSW 4.0 mph 9.0 mph 40% 0.00 in
14:09 73.4 °F 46.9 °F 30.25 in WSW 4.0 mph 9.0 mph 39% 0.00 in
14:14 73.6 °F 46.4 °F 30.25 in SW 3.0 mph 7.0 mph 38% 0.00 in
14:19 73.7 °F 45.8 °F 30.25 in WSW 1.0 mph 7.0 mph 37% 0.00 in
14:24 73.8 °F 45.9 °F 30.25 in West 3.0 mph 6.0 mph 37% 0.00 in
14:29 73.7 °F 48.5 °F 30.25 in WSW 2.0 mph 7.0 mph 41% 0.00 in
14:34 73.6 °F 45.7 °F 30.25 in WSW 3.0 mph 7.0 mph 37% 0.00 in
14:39 73.4 °F 46.9 °F 30.25 in WSW 3.0 mph 7.0 mph 39% 0.00 in
14:44 73.2 °F 47.4 °F 30.25 in WSW 4.0 mph 7.0 mph 40% 0.00 in
14:49 73.4 °F 46.9 °F 30.25 in WSW 4.0 mph 7.0 mph 39% 0.00 in
14:54 73.4 °F 45.5 °F 30.25 in WSW 4.0 mph 7.0 mph 37% 0.00 in
14:59 73.4 °F 44.8 °F 30.24 in West 3.0 mph 7.0 mph 36% 0.00 in
15:04 73.0 °F 46.6 °F 30.24 in WSW 3.0 mph 7.0 mph 39% 0.00 in
15:09 73.2 °F 45.4 °F 30.24 in West 2.0 mph 5.0 mph 37% 0.00 in
15:14 73.3 °F 47.5 °F 30.24 in WSW 2.0 mph 5.0 mph 40% 0.00 in
15:19 73.3 °F 46.8 °F 30.24 in WSW 1.0 mph 3.0 mph 39% 0.00 in
15:24 73.1 °F 46.0 °F 30.24 in Calm   4.0 mph 38% 0.00 in
15:29 73.1 °F 46.7 °F 30.24 in West 1.0 mph 5.0 mph 39% 0.00 in
15:34 73.0 °F 46.6 °F 30.24 in SW 3.0 mph 6.0 mph 39% 0.00 in
15:39 73.0 °F 47.9 °F 30.24 in WSW 3.0 mph 6.0 mph 41% 0.00 in
15:44 73.3 °F 46.8 °F 30.24 in WSW 2.0 mph 5.0 mph 39% 0.00 in
15:49 73.1 °F 46.7 °F 30.24 in WSW 2.0 mph 4.0 mph 39% 0.00 in
15:54 72.8 °F 46.4 °F 30.24 in WSW 2.0 mph 5.0 mph 39% 0.00 in
15:59 72.4 °F 46.0 °F 30.24 in SW 1.0 mph 6.0 mph 39% 0.00 in
16:04 72.2 °F 46.5 °F 30.24 in WSW 1.0 mph 4.0 mph 40% 0.00 in
16:09 72.0 °F 46.3 °F 30.25 in Calm   4.0 mph 40% 0.00 in
16:14 71.7 °F 44.7 °F 30.24 in WSW 2.0 mph 5.0 mph 38% 0.00 in
16:19 71.5 °F 44.5 °F 30.24 in WSW 2.0 mph 5.0 mph 38% 0.00 in
16:24 71.5 °F 45.2 °F 30.24 in WSW 2.0 mph 5.0 mph 39% 0.00 in
16:29 71.3 °F 44.4 °F 30.24 in WSW 2.0 mph 3.0 mph 38% 0.00 in
16:34 71.1 °F 44.9 °F 30.24 in Calm   4.0 mph 39% 0.00 in
16:39 71.0 °F 44.8 °F 30.23 in Calm   3.0 mph 39% 0.00 in
16:44 71.1 °F 45.5 °F 30.23 in SW 1.0 mph 3.0 mph 40% 0.00 in
16:49 71.2 °F 45.0 °F 30.23 in SW 1.0 mph 3.0 mph 39% 0.00 in
16:54 71.6 °F 44.6 °F 30.23 in Calm   3.0 mph 38% 0.00 in
16:59 71.9 °F 46.9 °F 30.23 in Calm   1.0 mph 41% 0.00 in
17:04 71.7 °F 46.1 °F 30.24 in Calm     40% 0.00 in
17:09 71.3 °F 46.4 °F 30.24 in Calm   2.0 mph 41% 0.00 in
17:14 70.8 °F 45.3 °F 30.24 in Calm   3.0 mph 40% 0.00 in
17:19 70.4 °F 46.2 °F 30.24 in Calm     42% 0.00 in
17:24 70.0 °F 45.2 °F 30.24 in Calm     41% 0.00 in
17:29 69.9 °F 46.4 °F 30.24 in Calm     43% 0.00 in
17:34 69.7 °F 45.6 °F 30.24 in Calm     42% 0.00 in
17:39 69.4 °F 45.3 °F 30.24 in Calm     42% 0.00 in
17:44 69.0 °F 46.2 °F 30.24 in Calm     44% 0.00 in
17:49 68.1 °F 47.7 °F 30.24 in Calm     48% 0.00 in
17:54 67.4 °F 47.0 °F 30.24 in Calm     48% 0.00 in
17:59 66.9 °F 47.1 °F 30.24 in Calm     49% 0.00 in
18:04 66.3 °F 47.6 °F 30.24 in Calm     51% 0.00 in
18:09 65.6 °F 47.0 °F 30.24 in Calm     51% 0.00 in
18:14 64.9 °F 47.4 °F 30.24 in Calm     53% 0.00 in
18:19 64.3 °F 47.3 °F 30.24 in Calm     54% 0.00 in
18:24 63.8 °F 47.8 °F 30.24 in Calm     56% 0.00 in
18:29 63.2 °F 47.2 °F 30.24 in Calm     56% 0.00 in
18:34 62.7 °F 47.2 °F 30.24 in Calm     57% 0.00 in
18:39 62.2 °F 47.2 °F 30.24 in Calm     58% 0.00 in
18:44 61.8 °F 47.8 °F 30.25 in Calm     60% 0.00 in
18:49 61.4 °F 47.8 °F 30.25 in Calm     61% 0.00 in
18:54 61.1 °F 48.0 °F 30.25 in Calm     62% 0.00 in
18:59 60.6 °F 47.9 °F 30.25 in Calm     63% 0.00 in
19:04 60.2 °F 47.6 °F 30.25 in Calm     63% 0.00 in
19:09 60.0 °F 47.8 °F 30.25 in Calm     64% 0.00 in
19:14 59.7 °F 47.5 °F 30.25 in Calm     64% 0.00 in
19:19 59.3 °F 47.5 °F 30.25 in Calm     65% 0.00 in
19:24 58.9 °F 47.6 °F 30.24 in Calm     66% 0.00 in
19:29 59.0 °F 47.7 °F 30.25 in Calm     66% 0.00 in
19:34 58.8 °F 47.5 °F 30.25 in Calm     66% 0.00 in
19:39 58.5 °F 47.6 °F 30.25 in Calm     67% 0.00 in
19:44 58.3 °F 47.8 °F 30.25 in Calm     68% 0.00 in
19:49 58.2 °F 47.7 °F 30.25 in Calm     68% 0.00 in
19:54 58.0 °F 47.5 °F 30.25 in Calm     68% 0.00 in
19:59 58.0 °F 47.5 °F 30.25 in Calm     68% 0.00 in
20:04 58.1 °F 47.2 °F 30.25 in Calm     67% 0.00 in
20:09 58.5 °F 47.6 °F 30.25 in Calm     67% 0.00 in
20:14 58.1 °F 47.2 °F 30.24 in Calm     67% 0.00 in
20:19 57.6 °F 47.5 °F 30.24 in Calm     69% 0.00 in
20:24 57.3 °F 47.2 °F 30.25 in Calm     69% 0.00 in
20:29 57.2 °F 47.5 °F 30.25 in Calm     70% 0.00 in
20:34 57.3 °F 47.2 °F 30.25 in Calm     69% 0.00 in
20:39 56.9 °F 47.2 °F 30.25 in Calm     70% 0.00 in
20:44 56.8 °F 47.5 °F 30.25 in Calm     71% 0.00 in
20:49 56.6 °F 47.3 °F 30.25 in Calm     71% 0.00 in
20:54 56.6 °F 47.7 °F 30.25 in Calm     72% 0.00 in
20:59 56.8 °F 47.9 °F 30.25 in Calm     72% 0.00 in
21:04 57.4 °F 47.7 °F 30.25 in Calm     70% 0.00 in
21:09 57.6 °F 47.9 °F 30.25 in Calm     70% 0.00 in
21:14 57.4 °F 48.1 °F 30.25 in Calm     71% 0.00 in
21:19 57.6 °F 48.3 °F 30.25 in Calm     71% 0.00 in
21:24 57.6 °F 48.3 °F 30.25 in Calm     71% 0.00 in
21:29 57.7 °F 48.7 °F 30.25 in Calm     72% 0.00 in
21:34 57.8 °F 48.8 °F 30.25 in Calm     72% 0.00 in
21:39 57.8 °F 48.8 °F 30.25 in Calm     72% 0.00 in
21:44 57.8 °F 48.5 °F 30.25 in Calm     71% 0.00 in
21:49 57.7 °F 48.7 °F 30.25 in Calm     72% 0.00 in
21:54 57.3 °F 48.3 °F 30.25 in Calm     72% 0.00 in
21:59 56.8 °F 48.2 °F 30.25 in Calm     73% 0.00 in
22:04 56.9 °F 48.3 °F 30.25 in Calm     73% 0.00 in
22:09 57.3 °F 48.3 °F 30.25 in Calm     72% 0.00 in
22:14 57.4 °F 48.4 °F 30.24 in Calm     72% 0.00 in
22:19 57.5 °F 48.5 °F 30.24 in Calm     72% 0.00 in
22:24 57.5 °F 48.2 °F 30.24 in Calm     71% 0.00 in
22:29 57.3 °F 48.0 °F 30.24 in Calm     71% 0.00 in
22:34 56.9 °F 48.0 °F 30.24 in Calm     72% 0.00 in
22:39 56.3 °F 47.4 °F 30.24 in Calm     72% 0.00 in
22:44 55.7 °F 47.5 °F 30.24 in Calm     74% 0.00 in
22:49 55.2 °F 47.4 °F 30.24 in Calm     75% 0.00 in
22:54 54.9 °F 47.1 °F 30.24 in Calm     75% 0.00 in
22:59 54.6 °F 47.2 °F 30.24 in Calm     76% 0.00 in
23:04 54.3 °F 46.9 °F 30.24 in Calm     76% 0.00 in
23:09 54.0 °F 47.0 °F 30.24 in Calm     77% 0.00 in
23:15 53.7 °F 46.7 °F 30.24 in Calm     77% 0.00 in
23:24 53.3 °F 46.6 °F 30.24 in Calm     78% 0.00 in
23:29 53.1 °F 46.4 °F 30.24 in Calm     78% 0.00 in
23:34 53.1 °F 46.4 °F 30.24 in Calm     78% 0.00 in
23:39 52.9 °F 46.2 °F 30.24 in Calm     78% 0.00 in
23:44 52.7 °F 46.4 °F 30.24 in Calm     79% 0.00 in
23:49 52.4 °F 46.1 °F 30.24 in Calm     79% 0.00 in
23:54 52.3 °F 46.0 °F 30.24 in Calm     79% 0.00 in
23:59 52.6 °F 46.3 °F 30.24 in Calm     79% 0.00 in
Buffalo, New York, USA
Compliments of Weather Underground - 2.5 mb